sensor_id;sensor_type;location;lat;lon;timestamp;P1;durP1;ratioP1;P2;durP2;ratioP2
8293;SDS011;4185;41.506;24.938;2023-05-07T00:00:18;11.57;;;8.47;;
8293;SDS011;4185;41.506;24.938;2023-05-07T00:02:47;11.87;;;8.47;;
8293;SDS011;4185;41.506;24.938;2023-05-07T00:05:13;11.03;;;7.93;;
8293;SDS011;4185;41.506;24.938;2023-05-07T00:07:40;10.40;;;7.63;;
8293;SDS011;4185;41.506;24.938;2023-05-07T00:10:07;10.13;;;8.30;;
8293;SDS011;4185;41.506;24.938;2023-05-07T00:12:34;11.13;;;8.70;;
8293;SDS011;4185;41.506;24.938;2023-05-07T00:15:01;10.20;;;8.50;;
8293;SDS011;4185;41.506;24.938;2023-05-07T00:17:29;10.40;;;8.23;;
8293;SDS011;4185;41.506;24.938;2023-05-07T00:19:57;10.87;;;7.37;;
8293;SDS011;4185;41.506;24.938;2023-05-07T00:22:24;10.00;;;7.17;;
8293;SDS011;4185;41.506;24.938;2023-05-07T00:24:50;9.37;;;7.03;;
8293;SDS011;4185;41.506;24.938;2023-05-07T00:27:17;8.40;;;7.00;;
8293;SDS011;4185;41.506;24.938;2023-05-07T00:29:44;9.20;;;6.43;;
8293;SDS011;4185;41.506;24.938;2023-05-07T00:32:11;6.80;;;6.10;;
8293;SDS011;4185;41.506;24.938;2023-05-07T00:34:37;8.70;;;6.57;;
8293;SDS011;4185;41.506;24.938;2023-05-07T00:37:06;8.50;;;6.20;;
8293;SDS011;4185;41.506;24.938;2023-05-07T00:39:34;7.83;;;6.77;;
8293;SDS011;4185;41.506;24.938;2023-05-07T00:42:01;9.47;;;6.50;;
8293;SDS011;4185;41.506;24.938;2023-05-07T00:44:28;7.03;;;5.93;;
8293;SDS011;4185;41.506;24.938;2023-05-07T00:46:55;8.50;;;6.10;;
8293;SDS011;4185;41.506;24.938;2023-05-07T00:49:24;8.10;;;6.03;;
8293;SDS011;4185;41.506;24.938;2023-05-07T00:51:57;6.70;;;5.50;;
8293;SDS011;4185;41.506;24.938;2023-05-07T00:54:27;5.37;;;4.87;;
8293;SDS011;4185;41.506;24.938;2023-05-07T00:56:53;6.80;;;5.90;;
8293;SDS011;4185;41.506;24.938;2023-05-07T00:59:21;6.67;;;5.27;;
8293;SDS011;4185;41.506;24.938;2023-05-07T01:01:48;9.73;;;5.20;;
8293;SDS011;4185;41.506;24.938;2023-05-07T01:04:15;8.80;;;5.30;;
8293;SDS011;4185;41.506;24.938;2023-05-07T01:06:41;6.10;;;4.23;;
8293;SDS011;4185;41.506;24.938;2023-05-07T01:09:09;6.47;;;4.70;;
8293;SDS011;4185;41.506;24.938;2023-05-07T01:11:37;7.70;;;4.83;;
8293;SDS011;4185;41.506;24.938;2023-05-07T01:14:05;6.13;;;4.73;;
8293;SDS011;4185;41.506;24.938;2023-05-07T01:16:33;8.77;;;4.67;;
8293;SDS011;4185;41.506;24.938;2023-05-07T01:19:00;5.57;;;4.57;;
8293;SDS011;4185;41.506;24.938;2023-05-07T01:21:27;5.00;;;4.40;;
8293;SDS011;4185;41.506;24.938;2023-05-07T01:24:00;6.30;;;4.87;;
8293;SDS011;4185;41.506;24.938;2023-05-07T01:26:27;6.47;;;5.00;;
8293;SDS011;4185;41.506;24.938;2023-05-07T01:28:54;4.97;;;4.47;;
8293;SDS011;4185;41.506;24.938;2023-05-07T01:31:21;5.00;;;4.40;;
8293;SDS011;4185;41.506;24.938;2023-05-07T01:33:49;5.07;;;4.57;;
8293;SDS011;4185;41.506;24.938;2023-05-07T01:36:19;7.37;;;4.93;;
8293;SDS011;4185;41.506;24.938;2023-05-07T01:38:49;5.50;;;5.00;;
8293;SDS011;4185;41.506;24.938;2023-05-07T01:41:18;8.13;;;5.30;;
8293;SDS011;4185;41.506;24.938;2023-05-07T01:43:46;6.80;;;5.17;;
8293;SDS011;4185;41.506;24.938;2023-05-07T01:46:13;5.43;;;4.93;;
8293;SDS011;4185;41.506;24.938;2023-05-07T01:48:41;7.40;;;5.17;;
8293;SDS011;4185;41.506;24.938;2023-05-07T01:51:11;6.00;;;5.30;;
8293;SDS011;4185;41.506;24.938;2023-05-07T01:53:38;7.00;;;5.53;;
8293;SDS011;4185;41.506;24.938;2023-05-07T01:56:08;10.77;;;7.70;;
8293;SDS011;4185;41.506;24.938;2023-05-07T01:58:36;13.90;;;8.47;;
8293;SDS011;4185;41.506;24.938;2023-05-07T02:01:03;9.63;;;7.63;;
8293;SDS011;4185;41.506;24.938;2023-05-07T02:03:30;7.43;;;6.27;;
8293;SDS011;4185;41.506;24.938;2023-05-07T02:05:57;7.27;;;5.23;;
8293;SDS011;4185;41.506;24.938;2023-05-07T02:08:23;7.87;;;5.47;;
8293;SDS011;4185;41.506;24.938;2023-05-07T02:10:50;6.97;;;5.73;;
8293;SDS011;4185;41.506;24.938;2023-05-07T02:13:19;5.90;;;4.63;;
8293;SDS011;4185;41.506;24.938;2023-05-07T02:15:48;6.23;;;4.33;;
8293;SDS011;4185;41.506;24.938;2023-05-07T02:18:15;5.20;;;4.67;;
8293;SDS011;4185;41.506;24.938;2023-05-07T02:20:43;7.53;;;5.07;;
8293;SDS011;4185;41.506;24.938;2023-05-07T02:23:10;6.60;;;5.20;;
8293;SDS011;4185;41.506;24.938;2023-05-07T02:25:36;6.30;;;5.37;;
8293;SDS011;4185;41.506;24.938;2023-05-07T02:28:04;7.37;;;5.53;;
8293;SDS011;4185;41.506;24.938;2023-05-07T02:30:31;7.13;;;5.80;;
8293;SDS011;4185;41.506;24.938;2023-05-07T02:32:59;8.17;;;5.73;;
8293;SDS011;4185;41.506;24.938;2023-05-07T02:35:26;8.43;;;6.17;;
8293;SDS011;4185;41.506;24.938;2023-05-07T02:37:53;7.97;;;6.17;;
8293;SDS011;4185;41.506;24.938;2023-05-07T02:40:20;8.93;;;5.47;;
8293;SDS011;4185;41.506;24.938;2023-05-07T02:42:47;16.97;;;6.50;;
8293;SDS011;4185;41.506;24.938;2023-05-07T02:45:13;11.57;;;6.00;;
8293;SDS011;4185;41.506;24.938;2023-05-07T02:47:40;8.40;;;5.80;;
8293;SDS011;4185;41.506;24.938;2023-05-07T02:50:09;6.93;;;5.07;;
8293;SDS011;4185;41.506;24.938;2023-05-07T02:52:36;5.83;;;5.10;;
8293;SDS011;4185;41.506;24.938;2023-05-07T02:55:03;10.83;;;5.50;;
8293;SDS011;4185;41.506;24.938;2023-05-07T02:57:30;9.10;;;5.43;;
8293;SDS011;4185;41.506;24.938;2023-05-07T02:59:58;7.60;;;5.80;;
8293;SDS011;4185;41.506;24.938;2023-05-07T03:02:25;7.90;;;5.97;;
8293;SDS011;4185;41.506;24.938;2023-05-07T03:04:52;7.00;;;5.73;;
8293;SDS011;4185;41.506;24.938;2023-05-07T03:07:20;5.57;;;4.87;;
8293;SDS011;4185;41.506;24.938;2023-05-07T03:09:47;5.80;;;4.70;;
8293;SDS011;4185;41.506;24.938;2023-05-07T03:12:14;7.30;;;5.13;;
8293;SDS011;4185;41.506;24.938;2023-05-07T03:14:40;7.53;;;5.07;;
8293;SDS011;4185;41.506;24.938;2023-05-07T03:17:07;6.83;;;5.53;;
8293;SDS011;4185;41.506;24.938;2023-05-07T03:19:34;6.23;;;5.13;;
8293;SDS011;4185;41.506;24.938;2023-05-07T03:22:01;5.53;;;4.50;;
8293;SDS011;4185;41.506;24.938;2023-05-07T03:24:29;5.53;;;4.73;;
8293;SDS011;4185;41.506;24.938;2023-05-07T03:26:56;5.63;;;5.03;;
8293;SDS011;4185;41.506;24.938;2023-05-07T03:29:23;5.77;;;4.57;;
8293;SDS011;4185;41.506;24.938;2023-05-07T03:31:50;6.30;;;5.13;;
8293;SDS011;4185;41.506;24.938;2023-05-07T03:34:17;9.07;;;5.70;;
8293;SDS011;4185;41.506;24.938;2023-05-07T03:36:47;11.83;;;5.63;;
8293;SDS011;4185;41.506;24.938;2023-05-07T03:39:14;9.67;;;6.13;;
8293;SDS011;4185;41.506;24.938;2023-05-07T03:41:42;7.27;;;5.57;;
8293;SDS011;4185;41.506;24.938;2023-05-07T03:44:09;15.50;;;7.60;;
8293;SDS011;4185;41.506;24.938;2023-05-07T03:46:36;11.93;;;8.70;;
8293;SDS011;4185;41.506;24.938;2023-05-07T03:49:04;12.70;;;7.43;;
8293;SDS011;4185;41.506;24.938;2023-05-07T03:51:30;10.20;;;6.40;;
8293;SDS011;4185;41.506;24.938;2023-05-07T03:53:57;9.37;;;6.10;;
8293;SDS011;4185;41.506;24.938;2023-05-07T03:56:24;13.93;;;6.63;;
8293;SDS011;4185;41.506;24.938;2023-05-07T03:58:54;10.00;;;6.63;;
8293;SDS011;4185;41.506;24.938;2023-05-07T04:01:21;9.47;;;6.37;;
8293;SDS011;4185;41.506;24.938;2023-05-07T04:03:47;9.97;;;6.60;;
8293;SDS011;4185;41.506;24.938;2023-05-07T04:06:15;8.50;;;6.37;;
8293;SDS011;4185;41.506;24.938;2023-05-07T04:08:42;14.73;;;8.77;;
8293;SDS011;4185;41.506;24.938;2023-05-07T04:11:09;13.23;;;7.63;;
8293;SDS011;4185;41.506;24.938;2023-05-07T04:13:36;12.93;;;7.33;;
8293;SDS011;4185;41.506;24.938;2023-05-07T04:16:04;11.20;;;6.40;;
8293;SDS011;4185;41.506;24.938;2023-05-07T04:18:32;30.83;;;14.87;;
8293;SDS011;4185;41.506;24.938;2023-05-07T04:20:58;21.33;;;9.83;;
8293;SDS011;4185;41.506;24.938;2023-05-07T04:23:25;17.43;;;8.57;;
8293;SDS011;4185;41.506;24.938;2023-05-07T04:25:52;9.73;;;7.73;;
8293;SDS011;4185;41.506;24.938;2023-05-07T04:28:19;14.97;;;8.57;;
8293;SDS011;4185;41.506;24.938;2023-05-07T04:30:46;21.50;;;11.03;;
8293;SDS011;4185;41.506;24.938;2023-05-07T04:33:15;10.10;;;7.00;;
8293;SDS011;4185;41.506;24.938;2023-05-07T04:35:42;9.97;;;6.23;;
8293;SDS011;4185;41.506;24.938;2023-05-07T04:38:09;10.00;;;6.80;;
8293;SDS011;4185;41.506;24.938;2023-05-07T04:40:36;9.07;;;5.77;;
8293;SDS011;4185;41.506;24.938;2023-05-07T04:43:04;10.67;;;6.33;;
8293;SDS011;4185;41.506;24.938;2023-05-07T04:45:31;7.03;;;6.00;;
8293;SDS011;4185;41.506;24.938;2023-05-07T04:47:58;9.43;;;7.00;;
8293;SDS011;4185;41.506;24.938;2023-05-07T04:50:26;9.70;;;5.60;;
8293;SDS011;4185;41.506;24.938;2023-05-07T04:52:53;6.83;;;5.33;;
8293;SDS011;4185;41.506;24.938;2023-05-07T04:55:20;9.17;;;6.37;;
8293;SDS011;4185;41.506;24.938;2023-05-07T04:57:46;8.80;;;6.43;;
8293;SDS011;4185;41.506;24.938;2023-05-07T05:00:13;7.40;;;6.60;;
8293;SDS011;4185;41.506;24.938;2023-05-07T05:02:41;7.43;;;5.73;;
8293;SDS011;4185;41.506;24.938;2023-05-07T05:05:08;8.37;;;6.20;;
8293;SDS011;4185;41.506;24.938;2023-05-07T05:07:36;7.43;;;6.37;;
8293;SDS011;4185;41.506;24.938;2023-05-07T05:10:04;9.63;;;6.20;;
8293;SDS011;4185;41.506;24.938;2023-05-07T05:12:32;8.13;;;6.37;;
8293;SDS011;4185;41.506;24.938;2023-05-07T05:14:59;8.87;;;6.53;;
8293;SDS011;4185;41.506;24.938;2023-05-07T05:17:26;9.37;;;6.97;;
8293;SDS011;4185;41.506;24.938;2023-05-07T05:19:52;8.20;;;6.43;;
8293;SDS011;4185;41.506;24.938;2023-05-07T05:22:19;11.37;;;6.93;;
8293;SDS011;4185;41.506;24.938;2023-05-07T05:24:47;10.60;;;7.07;;
8293;SDS011;4185;41.506;24.938;2023-05-07T05:27:14;10.03;;;7.17;;
8293;SDS011;4185;41.506;24.938;2023-05-07T05:29:41;12.77;;;9.23;;
8293;SDS011;4185;41.506;24.938;2023-05-07T05:32:08;12.30;;;8.40;;
8293;SDS011;4185;41.506;24.938;2023-05-07T05:34:35;12.60;;;7.90;;
8293;SDS011;4185;41.506;24.938;2023-05-07T05:37:01;10.73;;;7.53;;
8293;SDS011;4185;41.506;24.938;2023-05-07T05:39:28;10.73;;;8.00;;
8293;SDS011;4185;41.506;24.938;2023-05-07T05:41:57;8.90;;;6.30;;
8293;SDS011;4185;41.506;24.938;2023-05-07T05:44:24;8.40;;;6.00;;
8293;SDS011;4185;41.506;24.938;2023-05-07T05:46:51;7.23;;;5.47;;
8293;SDS011;4185;41.506;24.938;2023-05-07T05:49:20;9.97;;;7.10;;
8293;SDS011;4185;41.506;24.938;2023-05-07T05:51:47;7.93;;;6.43;;
8293;SDS011;4185;41.506;24.938;2023-05-07T05:54:13;6.57;;;5.97;;
8293;SDS011;4185;41.506;24.938;2023-05-07T05:56:41;7.07;;;6.07;;
8293;SDS011;4185;41.506;24.938;2023-05-07T05:59:09;10.67;;;6.50;;
8293;SDS011;4185;41.506;24.938;2023-05-07T06:01:36;6.37;;;5.73;;
8293;SDS011;4185;41.506;24.938;2023-05-07T06:04:03;8.37;;;7.00;;
8293;SDS011;4185;41.506;24.938;2023-05-07T06:06:30;7.50;;;6.57;;
8293;SDS011;4185;41.506;24.938;2023-05-07T06:08:57;7.10;;;6.40;;
8293;SDS011;4185;41.506;24.938;2023-05-07T06:11:24;6.40;;;5.80;;
8293;SDS011;4185;41.506;24.938;2023-05-07T06:13:51;8.90;;;6.60;;
8293;SDS011;4185;41.506;24.938;2023-05-07T06:16:19;8.00;;;6.20;;
8293;SDS011;4185;41.506;24.938;2023-05-07T06:18:46;8.50;;;6.50;;
8293;SDS011;4185;41.506;24.938;2023-05-07T06:21:13;8.73;;;6.40;;
8293;SDS011;4185;41.506;24.938;2023-05-07T06:23:40;8.17;;;6.70;;
8293;SDS011;4185;41.506;24.938;2023-05-07T06:26:07;7.60;;;6.80;;
8293;SDS011;4185;41.506;24.938;2023-05-07T06:28:34;7.90;;;6.47;;
8293;SDS011;4185;41.506;24.938;2023-05-07T06:31:11;7.77;;;6.20;;
8293;SDS011;4185;41.506;24.938;2023-05-07T06:33:40;7.77;;;6.50;;
8293;SDS011;4185;41.506;24.938;2023-05-07T06:36:07;6.90;;;5.97;;
8293;SDS011;4185;41.506;24.938;2023-05-07T06:38:35;6.83;;;6.13;;
8293;SDS011;4185;41.506;24.938;2023-05-07T06:41:01;8.83;;;5.73;;
8293;SDS011;4185;41.506;24.938;2023-05-07T06:43:28;6.80;;;6.10;;
8293;SDS011;4185;41.506;24.938;2023-05-07T06:45:55;6.43;;;5.80;;
8293;SDS011;4185;41.506;24.938;2023-05-07T06:48:22;6.87;;;6.13;;
8293;SDS011;4185;41.506;24.938;2023-05-07T06:50:50;8.33;;;6.60;;
8293;SDS011;4185;41.506;24.938;2023-05-07T06:53:18;8.23;;;6.20;;
8293;SDS011;4185;41.506;24.938;2023-05-07T06:55:44;6.90;;;6.20;;
8293;SDS011;4185;41.506;24.938;2023-05-07T06:58:11;7.20;;;5.67;;
8293;SDS011;4185;41.506;24.938;2023-05-07T07:00:38;6.73;;;6.03;;
8293;SDS011;4185;41.506;24.938;2023-05-07T07:03:05;9.03;;;6.07;;
8293;SDS011;4185;41.506;24.938;2023-05-07T07:05:32;6.03;;;5.30;;
8293;SDS011;4185;41.506;24.938;2023-05-07T07:08:01;6.70;;;6.00;;
8293;SDS011;4185;41.506;24.938;2023-05-07T07:10:28;7.17;;;6.33;;
8293;SDS011;4185;41.506;24.938;2023-05-07T07:12:54;7.83;;;5.27;;
8293;SDS011;4185;41.506;24.938;2023-05-07T07:15:21;6.83;;;5.70;;
8293;SDS011;4185;41.506;24.938;2023-05-07T07:17:50;7.43;;;5.73;;
8293;SDS011;4185;41.506;24.938;2023-05-07T07:20:17;6.17;;;4.93;;
8293;SDS011;4185;41.506;24.938;2023-05-07T07:22:43;6.67;;;4.80;;
8293;SDS011;4185;41.506;24.938;2023-05-07T07:25:12;5.13;;;4.47;;
8293;SDS011;4185;41.506;24.938;2023-05-07T07:27:38;7.37;;;4.97;;
8293;SDS011;4185;41.506;24.938;2023-05-07T07:30:06;10.07;;;5.00;;
8293;SDS011;4185;41.506;24.938;2023-05-07T07:32:33;6.07;;;5.47;;
8293;SDS011;4185;41.506;24.938;2023-05-07T07:35:00;6.60;;;4.47;;
8293;SDS011;4185;41.506;24.938;2023-05-07T07:37:27;4.87;;;4.37;;
8293;SDS011;4185;41.506;24.938;2023-05-07T07:39:55;5.27;;;4.77;;
8293;SDS011;4185;41.506;24.938;2023-05-07T07:42:23;6.97;;;4.30;;
8293;SDS011;4185;41.506;24.938;2023-05-07T07:44:50;6.73;;;4.57;;
8293;SDS011;4185;41.506;24.938;2023-05-07T07:47:17;6.27;;;5.23;;
8293;SDS011;4185;41.506;24.938;2023-05-07T07:49:44;4.27;;;3.73;;
8293;SDS011;4185;41.506;24.938;2023-05-07T07:52:11;5.77;;;3.90;;
8293;SDS011;4185;41.506;24.938;2023-05-07T07:54:37;4.57;;;3.80;;
8293;SDS011;4185;41.506;24.938;2023-05-07T07:57:04;4.10;;;3.50;;
8293;SDS011;4185;41.506;24.938;2023-05-07T07:59:33;6.07;;;3.63;;
8293;SDS011;4185;41.506;24.938;2023-05-07T08:01:59;5.13;;;3.40;;
8293;SDS011;4185;41.506;24.938;2023-05-07T08:04:26;4.03;;;3.30;;
8293;SDS011;4185;41.506;24.938;2023-05-07T08:06:53;4.50;;;3.40;;
8293;SDS011;4185;41.506;24.938;2023-05-07T08:09:21;5.07;;;3.70;;
8293;SDS011;4185;41.506;24.938;2023-05-07T08:11:47;3.40;;;3.03;;
8293;SDS011;4185;41.506;24.938;2023-05-07T08:14:14;4.47;;;3.20;;
8293;SDS011;4185;41.506;24.938;2023-05-07T08:16:43;3.50;;;3.20;;
8293;SDS011;4185;41.506;24.938;2023-05-07T08:19:10;3.70;;;3.40;;
8293;SDS011;4185;41.506;24.938;2023-05-07T08:21:38;5.47;;;3.60;;
8293;SDS011;4185;41.506;24.938;2023-05-07T08:24:05;3.37;;;3.03;;
8293;SDS011;4185;41.506;24.938;2023-05-07T08:26:32;4.60;;;2.90;;
8293;SDS011;4185;41.506;24.938;2023-05-07T08:29:01;4.67;;;2.70;;
8293;SDS011;4185;41.506;24.938;2023-05-07T08:31:27;4.83;;;3.07;;
8293;SDS011;4185;41.506;24.938;2023-05-07T08:33:56;5.07;;;3.20;;
8293;SDS011;4185;41.506;24.938;2023-05-07T08:36:23;5.43;;;2.80;;
8293;SDS011;4185;41.506;24.938;2023-05-07T08:38:50;4.93;;;3.13;;
8293;SDS011;4185;41.506;24.938;2023-05-07T08:41:17;4.00;;;3.00;;
8293;SDS011;4185;41.506;24.938;2023-05-07T08:43:47;8.43;;;5.03;;
8293;SDS011;4185;41.506;24.938;2023-05-07T08:46:16;3.50;;;3.20;;
8293;SDS011;4185;41.506;24.938;2023-05-07T08:48:44;4.53;;;3.37;;
8293;SDS011;4185;41.506;24.938;2023-05-07T08:51:14;3.07;;;2.70;;
8293;SDS011;4185;41.506;24.938;2023-05-07T08:53:43;3.80;;;2.83;;
8293;SDS011;4185;41.506;24.938;2023-05-07T08:56:10;4.80;;;3.60;;
8293;SDS011;4185;41.506;24.938;2023-05-07T08:58:38;4.03;;;3.10;;
8293;SDS011;4185;41.506;24.938;2023-05-07T09:01:06;2.87;;;2.60;;
8293;SDS011;4185;41.506;24.938;2023-05-07T09:03:36;3.30;;;3.00;;
8293;SDS011;4185;41.506;24.938;2023-05-07T09:06:04;4.90;;;3.53;;
8293;SDS011;4185;41.506;24.938;2023-05-07T09:08:33;4.53;;;2.80;;
8293;SDS011;4185;41.506;24.938;2023-05-07T09:11:01;3.80;;;2.80;;
8293;SDS011;4185;41.506;24.938;2023-05-07T09:13:28;3.23;;;2.93;;
8293;SDS011;4185;41.506;24.938;2023-05-07T09:15:55;3.77;;;3.07;;
8293;SDS011;4185;41.506;24.938;2023-05-07T09:18:23;4.80;;;2.90;;
8293;SDS011;4185;41.506;24.938;2023-05-07T09:20:50;4.27;;;3.00;;
8293;SDS011;4185;41.506;24.938;2023-05-07T09:23:17;3.00;;;2.70;;
8293;SDS011;4185;41.506;24.938;2023-05-07T09:25:46;3.53;;;2.73;;
8293;SDS011;4185;41.506;24.938;2023-05-07T09:28:12;6.03;;;2.87;;
8293;SDS011;4185;41.506;24.938;2023-05-07T09:30:39;3.37;;;2.50;;
8293;SDS011;4185;41.506;24.938;2023-05-07T09:33:06;3.40;;;2.90;;
8293;SDS011;4185;41.506;24.938;2023-05-07T09:35:33;4.13;;;2.70;;
8293;SDS011;4185;41.506;24.938;2023-05-07T09:38:00;3.83;;;2.73;;
8293;SDS011;4185;41.506;24.938;2023-05-07T09:40:28;5.27;;;3.13;;
8293;SDS011;4185;41.506;24.938;2023-05-07T09:43:07;2.90;;;2.60;;
8293;SDS011;4185;41.506;24.938;2023-05-07T09:45:35;5.10;;;2.70;;
8293;SDS011;4185;41.506;24.938;2023-05-07T09:48:03;4.90;;;3.10;;
8293;SDS011;4185;41.506;24.938;2023-05-07T09:50:32;3.23;;;2.73;;
8293;SDS011;4185;41.506;24.938;2023-05-07T09:53:03;3.10;;;2.80;;
8293;SDS011;4185;41.506;24.938;2023-05-07T09:55:30;4.53;;;2.90;;
8293;SDS011;4185;41.506;24.938;2023-05-07T09:57:59;5.30;;;3.00;;
8293;SDS011;4185;41.506;24.938;2023-05-07T10:00:27;3.33;;;3.00;;
8293;SDS011;4185;41.506;24.938;2023-05-07T10:02:57;8.23;;;3.00;;
8293;SDS011;4185;41.506;24.938;2023-05-07T10:05:24;4.47;;;3.40;;
8293;SDS011;4185;41.506;24.938;2023-05-07T10:07:52;4.13;;;3.00;;
8293;SDS011;4185;41.506;24.938;2023-05-07T10:10:20;6.67;;;3.60;;
8293;SDS011;4185;41.506;24.938;2023-05-07T10:12:48;6.53;;;3.17;;
8293;SDS011;4185;41.506;24.938;2023-05-07T10:15:18;4.40;;;2.77;;
8293;SDS011;4185;41.506;24.938;2023-05-07T10:17:45;3.47;;;2.87;;
8293;SDS011;4185;41.506;24.938;2023-05-07T10:20:13;4.57;;;3.30;;
8293;SDS011;4185;41.506;24.938;2023-05-07T10:22:41;7.43;;;4.20;;
8293;SDS011;4185;41.506;24.938;2023-05-07T10:25:14;11.47;;;3.40;;
8293;SDS011;4185;41.506;24.938;2023-05-07T10:27:44;4.50;;;3.30;;
8293;SDS011;4185;41.506;24.938;2023-05-07T10:30:14;4.37;;;3.07;;
8293;SDS011;4185;41.506;24.938;2023-05-07T10:32:53;3.27;;;2.97;;
8293;SDS011;4185;41.506;24.938;2023-05-07T10:35:24;3.50;;;3.00;;
8293;SDS011;4185;41.506;24.938;2023-05-07T10:37:56;3.97;;;3.20;;
8293;SDS011;4185;41.506;24.938;2023-05-07T10:40:23;16.13;;;7.23;;
8293;SDS011;4185;41.506;24.938;2023-05-07T10:42:53;5.53;;;3.23;;
8293;SDS011;4185;41.506;24.938;2023-05-07T10:45:23;7.10;;;3.83;;
8293;SDS011;4185;41.506;24.938;2023-05-07T10:50:44;4.67;;;3.10;;
8293;SDS011;4185;41.506;24.938;2023-05-07T10:58:54;26.00;;;11.93;;
8293;SDS011;4185;41.506;24.938;2023-05-07T11:01:50;9.67;;;4.80;;
8293;SDS011;4185;41.506;24.938;2023-05-07T11:04:18;3.70;;;3.30;;
8293;SDS011;4185;41.506;24.938;2023-05-07T11:10:02;3.77;;;3.17;;
8293;SDS011;4185;41.506;24.938;2023-05-07T11:12:46;6.53;;;3.47;;
8293;SDS011;4185;41.506;24.938;2023-05-07T11:15:14;9.43;;;5.73;;
8293;SDS011;4185;41.506;24.938;2023-05-07T11:17:53;4.57;;;3.10;;
8293;SDS011;4185;41.506;24.938;2023-05-07T11:20:21;3.67;;;2.97;;
8293;SDS011;4185;41.506;24.938;2023-05-07T11:26:17;5.23;;;3.90;;
8293;SDS011;4185;41.506;24.938;2023-05-07T11:28:44;4.47;;;3.13;;
8293;SDS011;4185;41.506;24.938;2023-05-07T11:31:11;9.73;;;4.93;;
8293;SDS011;4185;41.506;24.938;2023-05-07T11:33:38;7.67;;;3.40;;
8293;SDS011;4185;41.506;24.938;2023-05-07T11:36:07;8.60;;;5.33;;
8293;SDS011;4185;41.506;24.938;2023-05-07T11:38:35;4.13;;;2.97;;
8293;SDS011;4185;41.506;24.938;2023-05-07T11:41:02;3.30;;;2.90;;
8293;SDS011;4185;41.506;24.938;2023-05-07T11:43:30;6.23;;;4.00;;
8293;SDS011;4185;41.506;24.938;2023-05-07T11:46:04;6.10;;;3.90;;
8293;SDS011;4185;41.506;24.938;2023-05-07T11:48:33;3.67;;;3.03;;
8293;SDS011;4185;41.506;24.938;2023-05-07T11:51:02;3.77;;;2.90;;
8293;SDS011;4185;41.506;24.938;2023-05-07T11:53:36;3.50;;;2.83;;
8293;SDS011;4185;41.506;24.938;2023-05-07T11:56:07;5.43;;;3.40;;
8293;SDS011;4185;41.506;24.938;2023-05-07T11:58:34;3.50;;;3.03;;
8293;SDS011;4185;41.506;24.938;2023-05-07T12:01:01;6.30;;;3.53;;
8293;SDS011;4185;41.506;24.938;2023-05-07T12:03:28;3.20;;;2.67;;
8293;SDS011;4185;41.506;24.938;2023-05-07T12:05:55;3.13;;;2.83;;
8293;SDS011;4185;41.506;24.938;2023-05-07T12:08:22;5.57;;;3.30;;
8293;SDS011;4185;41.506;24.938;2023-05-07T12:10:50;6.57;;;3.07;;
8293;SDS011;4185;41.506;24.938;2023-05-07T12:13:17;4.47;;;2.77;;
8293;SDS011;4185;41.506;24.938;2023-05-07T12:15:46;3.07;;;2.73;;
8293;SDS011;4185;41.506;24.938;2023-05-07T12:18:16;5.00;;;3.10;;
8293;SDS011;4185;41.506;24.938;2023-05-07T12:20:43;3.43;;;2.77;;
8293;SDS011;4185;41.506;24.938;2023-05-07T12:23:11;3.40;;;3.10;;
8293;SDS011;4185;41.506;24.938;2023-05-07T12:25:39;3.43;;;3.13;;
8293;SDS011;4185;41.506;24.938;2023-05-07T12:28:13;4.87;;;3.60;;
8293;SDS011;4185;41.506;24.938;2023-05-07T12:30:41;3.93;;;2.97;;
8293;SDS011;4185;41.506;24.938;2023-05-07T12:33:09;3.63;;;3.10;;
8293;SDS011;4185;41.506;24.938;2023-05-07T12:35:36;3.37;;;3.07;;
8293;SDS011;4185;41.506;24.938;2023-05-07T12:38:07;3.80;;;3.10;;
8293;SDS011;4185;41.506;24.938;2023-05-07T12:40:35;3.80;;;3.27;;
8293;SDS011;4185;41.506;24.938;2023-05-07T12:43:04;5.40;;;2.80;;
8293;SDS011;4185;41.506;24.938;2023-05-07T12:45:32;4.67;;;2.87;;
8293;SDS011;4185;41.506;24.938;2023-05-07T12:48:04;3.67;;;3.07;;
8293;SDS011;4185;41.506;24.938;2023-05-07T12:50:31;3.47;;;2.90;;
8293;SDS011;4185;41.506;24.938;2023-05-07T12:52:59;3.40;;;3.10;;
8293;SDS011;4185;41.506;24.938;2023-05-07T12:55:28;3.00;;;2.70;;
8293;SDS011;4185;41.506;24.938;2023-05-07T12:57:55;3.40;;;3.10;;
8293;SDS011;4185;41.506;24.938;2023-05-07T13:00:37;3.13;;;2.83;;
8293;SDS011;4185;41.506;24.938;2023-05-07T13:03:04;4.70;;;3.37;;
8293;SDS011;4185;41.506;24.938;2023-05-07T13:05:31;3.23;;;2.93;;
8293;SDS011;4185;41.506;24.938;2023-05-07T13:08:00;3.00;;;2.70;;
8293;SDS011;4185;41.506;24.938;2023-05-07T13:10:27;3.23;;;2.93;;
8293;SDS011;4185;41.506;24.938;2023-05-07T13:12:54;3.50;;;2.87;;
8293;SDS011;4185;41.506;24.938;2023-05-07T13:15:21;3.80;;;3.10;;
8293;SDS011;4185;41.506;24.938;2023-05-07T13:17:49;4.53;;;3.20;;
8293;SDS011;4185;41.506;24.938;2023-05-07T13:20:16;4.93;;;3.40;;
8293;SDS011;4185;41.506;24.938;2023-05-07T13:22:43;3.93;;;3.00;;
8293;SDS011;4185;41.506;24.938;2023-05-07T13:25:10;4.80;;;3.20;;
8293;SDS011;4185;41.506;24.938;2023-05-07T13:27:37;4.77;;;2.90;;
8293;SDS011;4185;41.506;24.938;2023-05-07T13:30:04;4.47;;;2.87;;
8293;SDS011;4185;41.506;24.938;2023-05-07T13:32:31;3.60;;;3.10;;
8293;SDS011;4185;41.506;24.938;2023-05-07T13:35:00;3.33;;;2.63;;
8293;SDS011;4185;41.506;24.938;2023-05-07T13:37:27;3.93;;;2.80;;
8293;SDS011;4185;41.506;24.938;2023-05-07T13:39:54;5.83;;;3.13;;
8293;SDS011;4185;41.506;24.938;2023-05-07T13:42:20;3.10;;;2.90;;
8293;SDS011;4185;41.506;24.938;2023-05-07T13:44:47;3.73;;;3.40;;
8293;SDS011;4185;41.506;24.938;2023-05-07T13:47:14;6.53;;;4.23;;
8293;SDS011;4185;41.506;24.938;2023-05-07T13:49:41;3.10;;;2.73;;
8293;SDS011;4185;41.506;24.938;2023-05-07T13:52:09;4.10;;;2.70;;
8293;SDS011;4185;41.506;24.938;2023-05-07T13:54:36;2.90;;;2.67;;
8293;SDS011;4185;41.506;24.938;2023-05-07T13:57:03;3.97;;;2.90;;
8293;SDS011;4185;41.506;24.938;2023-05-07T13:59:30;3.43;;;2.63;;
8293;SDS011;4185;41.506;24.938;2023-05-07T14:01:56;3.93;;;3.00;;
8293;SDS011;4185;41.506;24.938;2023-05-07T14:04:23;4.10;;;2.90;;
8293;SDS011;4185;41.506;24.938;2023-05-07T14:06:50;2.70;;;2.50;;
8293;SDS011;4185;41.506;24.938;2023-05-07T14:09:18;3.63;;;2.93;;
8293;SDS011;4185;41.506;24.938;2023-05-07T14:11:45;3.57;;;2.63;;
8293;SDS011;4185;41.506;24.938;2023-05-07T14:14:12;3.73;;;2.60;;
8293;SDS011;4185;41.506;24.938;2023-05-07T14:16:39;3.20;;;2.60;;
8293;SDS011;4185;41.506;24.938;2023-05-07T14:19:06;3.67;;;3.00;;
8293;SDS011;4185;41.506;24.938;2023-05-07T14:21:33;4.70;;;2.60;;
8293;SDS011;4185;41.506;24.938;2023-05-07T14:24:00;3.83;;;2.80;;
8293;SDS011;4185;41.506;24.938;2023-05-07T14:26:28;3.40;;;3.10;;
8293;SDS011;4185;41.506;24.938;2023-05-07T14:28:55;3.20;;;2.83;;
8293;SDS011;4185;41.506;24.938;2023-05-07T14:31:23;3.10;;;2.63;;
8293;SDS011;4185;41.506;24.938;2023-05-07T14:33:50;6.07;;;3.43;;
8293;SDS011;4185;41.506;24.938;2023-05-07T14:36:18;2.70;;;2.50;;
8293;SDS011;4185;41.506;24.938;2023-05-07T14:38:46;5.07;;;2.60;;
8293;SDS011;4185;41.506;24.938;2023-05-07T14:41:13;4.47;;;3.57;;
8293;SDS011;4185;41.506;24.938;2023-05-07T14:43:41;3.53;;;2.40;;
8293;SDS011;4185;41.506;24.938;2023-05-07T14:46:09;3.43;;;2.40;;
8293;SDS011;4185;41.506;24.938;2023-05-07T14:48:35;5.50;;;3.50;;
8293;SDS011;4185;41.506;24.938;2023-05-07T14:51:02;2.80;;;2.60;;
8293;SDS011;4185;41.506;24.938;2023-05-07T14:53:29;3.37;;;3.07;;
8293;SDS011;4185;41.506;24.938;2023-05-07T14:55:56;3.53;;;2.63;;
8293;SDS011;4185;41.506;24.938;2023-05-07T14:58:23;2.90;;;2.60;;
8293;SDS011;4185;41.506;24.938;2023-05-07T15:00:51;4.60;;;3.10;;
8293;SDS011;4185;41.506;24.938;2023-05-07T15:03:18;2.60;;;2.40;;
8293;SDS011;4185;41.506;24.938;2023-05-07T15:05:45;3.23;;;2.50;;
8293;SDS011;4185;41.506;24.938;2023-05-07T15:08:11;3.07;;;2.60;;
8293;SDS011;4185;41.506;24.938;2023-05-07T15:10:38;2.67;;;2.47;;
8293;SDS011;4185;41.506;24.938;2023-05-07T15:13:06;2.83;;;2.60;;
8293;SDS011;4185;41.506;24.938;2023-05-07T15:15:33;3.23;;;2.67;;
8293;SDS011;4185;41.506;24.938;2023-05-07T15:18:02;3.30;;;2.93;;